createdAt,value
2023-05-09T00:02:03.528Z,30.33
2023-05-09T00:04:30.890Z,32.88
2023-05-09T00:06:57.947Z,37.25
2023-05-09T00:09:26.092Z,28.88
2023-05-09T00:11:53.205Z,23.25
2023-05-09T00:14:20.244Z,35.20
2023-05-09T00:16:47.795Z,32.25
2023-05-09T00:19:14.856Z,36.95
2023-05-09T00:21:41.910Z,40.33
2023-05-09T00:24:09.246Z,43.15
2023-05-09T00:26:36.324Z,41.42
2023-05-09T00:29:03.312Z,38.70
2023-05-09T00:31:30.374Z,39.42
2023-05-09T00:33:57.507Z,36.88
2023-05-09T00:36:24.597Z,34.97
2023-05-09T00:38:51.624Z,36.28
2023-05-09T00:41:18.900Z,36.30
2023-05-09T00:43:46.013Z,33.10
2023-05-09T00:46:13.148Z,40.20
2023-05-09T00:48:40.751Z,43.03
2023-05-09T00:51:08.016Z,37.58
2023-05-09T00:53:35.264Z,35.55
2023-05-09T00:56:02.681Z,37.17
2023-05-09T00:58:30.381Z,37.20
2023-05-09T01:00:57.897Z,36.38
2023-05-09T01:03:25.327Z,41.95
2023-05-09T01:05:58.488Z,48.72
2023-05-09T01:08:37.292Z,36.30
2023-05-09T01:11:13.387Z,36.92
2023-05-09T01:13:52.740Z,47.72
2023-05-09T01:16:34.462Z,34.85
2023-05-09T01:19:04.088Z,44.38
2023-05-09T01:21:33.609Z,37.53
2023-05-09T01:24:21.705Z,45.72
2023-05-09T01:27:16.427Z,46.13
2023-05-09T01:29:47.918Z,37.70
2023-05-09T01:32:19.739Z,45.05
2023-05-09T01:34:50.066Z,32.40
2023-05-09T01:37:20.685Z,37.45
2023-05-09T01:39:50.826Z,29.88
2023-05-09T01:42:21.051Z,38.25
2023-05-09T01:44:49.297Z,43.47
2023-05-09T01:47:18.835Z,38.22
2023-05-09T01:49:47.980Z,35.70
2023-05-09T01:52:19.345Z,25.23
2023-05-09T01:54:48.048Z,32.25
2023-05-09T01:57:15.712Z,30.08
2023-05-09T01:59:45.366Z,23.08
2023-05-09T02:02:13.294Z,30.10
2023-05-09T02:04:43.716Z,32.55
2023-05-09T02:07:12.165Z,31.42
2023-05-09T02:09:39.292Z,31.58
2023-05-09T02:12:07.288Z,30.45
2023-05-09T02:14:34.501Z,29.38
2023-05-09T02:17:07.199Z,26.17
2023-05-09T02:19:36.226Z,26.35
2023-05-09T02:22:05.222Z,30.80
2023-05-09T02:24:37.048Z,30.70
2023-05-09T02:27:05.667Z,36.47
2023-05-09T02:29:40.785Z,30.08
2023-05-09T02:32:22.693Z,24.23
2023-05-09T02:34:52.757Z,26.00
2023-05-09T02:37:20.991Z,21.73
2023-05-09T02:39:48.538Z,19.60
2023-05-09T02:42:21.606Z,27.30
2023-05-09T02:44:48.630Z,33.00
2023-05-09T02:47:15.708Z,32.85
2023-05-09T02:49:42.800Z,25.15
2023-05-09T02:52:09.848Z,32.53
2023-05-09T02:54:36.900Z,34.17
2023-05-09T02:57:04.337Z,30.30
2023-05-09T02:59:32.232Z,30.60
2023-05-09T03:01:59.323Z,28.42
2023-05-09T03:04:26.384Z,28.73
2023-05-09T03:06:53.419Z,30.10
2023-05-09T03:09:20.618Z,30.65
2023-05-09T03:11:47.658Z,23.45
2023-05-09T03:14:15.660Z,30.17
2023-05-09T03:16:42.726Z,30.23
2023-05-09T03:19:09.721Z,46.17
2023-05-09T03:21:36.879Z,32.53
2023-05-09T03:24:04.981Z,37.72
2023-05-09T03:26:32.028Z,34.95
2023-05-09T03:28:59.388Z,30.13
2023-05-09T03:31:26.452Z,24.33
2023-05-09T03:33:53.614Z,43.85
2023-05-09T03:36:20.832Z,38.00
2023-05-09T03:38:47.897Z,32.38
2023-05-09T03:41:17.374Z,29.25
2023-05-09T03:43:44.608Z,27.75
2023-05-09T03:46:11.714Z,36.67
2023-05-09T03:48:38.751Z,29.33
2023-05-09T03:51:06.479Z,35.45
2023-05-09T03:53:33.582Z,33.35
2023-05-09T03:56:00.696Z,35.88
2023-05-09T03:58:28.449Z,37.17
2023-05-09T04:00:55.488Z,38.13
2023-05-09T04:03:22.619Z,31.02
2023-05-09T04:05:49.894Z,33.70
2023-05-09T04:08:17.028Z,32.03
2023-05-09T04:10:44.826Z,37.67
2023-05-09T04:13:11.925Z,37.47
2023-05-09T04:15:38.983Z,35.38
2023-05-09T04:18:06.541Z,29.10
2023-05-09T04:20:33.637Z,30.05
2023-05-09T04:23:00.681Z,27.55
2023-05-09T04:25:27.855Z,21.63
2023-05-09T04:27:55.102Z,18.92
2023-05-09T04:30:22.746Z,24.52
2023-05-09T04:32:50.145Z,26.17
2023-05-09T04:35:20.404Z,22.98
2023-05-09T04:37:47.975Z,30.35
2023-05-09T04:40:15.099Z,29.33
2023-05-09T04:42:42.546Z,38.90
2023-05-09T04:45:11.974Z,36.13
2023-05-09T04:47:39.721Z,39.17
2023-05-09T04:50:08.269Z,28.98
2023-05-09T04:52:35.579Z,30.95
2023-05-09T04:55:02.640Z,25.67
2023-05-09T04:57:30.039Z,24.48
2023-05-09T04:59:57.138Z,24.40
2023-05-09T05:02:25.472Z,25.55
2023-05-09T05:04:56.109Z,31.05
2023-05-09T05:07:27.403Z,25.02
2023-05-09T05:09:54.449Z,28.35
2023-05-09T05:12:22.099Z,34.38
2023-05-09T05:14:49.274Z,29.92
2023-05-09T05:17:18.450Z,31.58
2023-05-09T05:19:45.576Z,28.35
2023-05-09T05:22:12.760Z,32.33
2023-05-09T05:24:39.864Z,37.03
2023-05-09T05:27:06.884Z,36.35
2023-05-09T05:29:33.926Z,37.08
2023-05-09T05:32:01.058Z,28.88
2023-05-09T05:34:28.136Z,28.70
2023-05-09T05:36:55.118Z,32.28
2023-05-09T05:39:22.155Z,29.70
2023-05-09T05:41:49.317Z,42.00
2023-05-09T05:44:16.387Z,30.45
2023-05-09T05:46:44.041Z,36.70
2023-05-09T05:49:11.114Z,37.85
2023-05-09T05:51:56.263Z,38.88
2023-05-09T05:54:23.982Z,31.13
2023-05-09T05:56:51.120Z,27.17
2023-05-09T05:59:18.161Z,32.30
2023-05-09T06:01:45.245Z,26.13
2023-05-09T06:04:12.377Z,34.20
2023-05-09T06:06:39.561Z,35.30
2023-05-09T06:09:06.625Z,33.63
2023-05-09T06:11:33.715Z,36.83
2023-05-09T06:14:00.735Z,47.55
2023-05-09T06:16:28.407Z,31.55
2023-05-09T06:18:56.153Z,35.03
2023-05-09T06:21:23.897Z,36.45
2023-05-09T06:24:07.741Z,26.63
2023-05-09T06:26:37.971Z,35.33
2023-05-09T06:29:06.564Z,28.65
2023-05-09T06:31:39.190Z,35.33
2023-05-09T06:34:06.653Z,33.35
2023-05-09T06:36:34.199Z,32.30
2023-05-09T06:39:01.883Z,27.50
2023-05-09T06:41:29.019Z,27.85
2023-05-09T06:43:56.503Z,29.80
2023-05-09T06:46:23.588Z,28.80
2023-05-09T06:48:50.633Z,26.15
2023-05-09T06:51:17.768Z,32.63
2023-05-09T06:53:44.793Z,32.58
2023-05-09T06:56:12.791Z,33.60
2023-05-09T06:58:40.098Z,30.92
2023-05-09T07:01:07.302Z,37.45
2023-05-09T07:03:34.435Z,25.80
2023-05-09T07:06:01.929Z,33.78
2023-05-09T07:08:29.080Z,26.58
2023-05-09T07:10:56.175Z,30.52
2023-05-09T07:13:23.682Z,28.23
2023-05-09T07:15:50.863Z,35.22
2023-05-09T07:18:17.910Z,35.65
2023-05-09T07:20:45.059Z,38.15
2023-05-09T07:23:12.167Z,31.42
2023-05-09T07:25:39.210Z,37.78
2023-05-09T07:28:06.899Z,37.90
2023-05-09T07:30:33.974Z,32.00
2023-05-09T07:33:01.761Z,31.95
2023-05-09T07:35:28.989Z,30.98
2023-05-09T07:37:56.134Z,37.42
2023-05-09T07:40:23.192Z,33.67
2023-05-09T07:42:51.847Z,27.23
2023-05-09T07:45:20.009Z,39.22
2023-05-09T07:47:49.103Z,35.22
2023-05-09T07:50:17.405Z,45.13
2023-05-09T07:52:44.468Z,41.83
2023-05-09T07:55:12.744Z,34.88
2023-05-09T07:57:40.262Z,34.05
2023-05-09T08:00:09.103Z,41.53
2023-05-09T08:02:36.444Z,44.70
2023-05-09T08:05:03.696Z,45.05
2023-05-09T08:07:30.731Z,38.13
2023-05-09T08:09:58.262Z,42.75
2023-05-09T08:12:25.275Z,41.10
2023-05-09T08:14:52.316Z,62.15
2023-05-09T08:17:19.935Z,45.13
2023-05-09T08:19:47.041Z,41.83
2023-05-09T08:22:20.810Z,34.70
2023-05-09T08:27:15.778Z,47.25
2023-05-09T08:29:43.588Z,39.22
2023-05-09T08:32:10.664Z,44.90
2023-05-09T08:34:37.854Z,45.15
2023-05-09T08:37:05.281Z,45.25
2023-05-09T08:39:35.079Z,48.63
2023-05-09T08:42:02.964Z,51.25
2023-05-09T08:44:31.761Z,41.58
2023-05-09T08:47:03.171Z,44.70
2023-05-09T08:49:30.802Z,43.35
2023-05-09T08:51:58.378Z,42.20
2023-05-09T08:54:25.539Z,44.88
2023-05-09T08:56:52.952Z,40.55
2023-05-09T08:59:20.110Z,47.70
2023-05-09T09:01:48.431Z,48.15
2023-05-09T09:04:15.595Z,41.65
2023-05-09T09:06:43.455Z,38.25
2023-05-09T09:09:14.522Z,41.95
2023-05-09T09:11:43.074Z,45.30
2023-05-09T09:14:16.433Z,44.80
2023-05-09T09:16:45.304Z,45.78
2023-05-09T09:19:14.221Z,55.63
2023-05-09T09:21:43.384Z,42.92
2023-05-09T09:24:14.170Z,35.35
2023-05-09T09:26:49.227Z,41.78
2023-05-09T09:29:18.771Z,40.55
2023-05-09T09:31:47.279Z,43.88
2023-05-09T09:34:21.615Z,46.92
2023-05-09T09:36:49.008Z,42.40
2023-05-09T09:39:16.620Z,36.05
2023-05-09T09:41:45.226Z,38.63
2023-05-09T09:44:17.390Z,41.25
2023-05-09T09:46:52.264Z,39.75
2023-05-09T09:49:23.408Z,35.15
2023-05-09T09:51:58.370Z,43.70
2023-05-09T09:54:29.116Z,42.88
2023-05-09T09:56:56.867Z,38.60
2023-05-09T09:59:26.889Z,37.08
2023-05-09T10:01:57.211Z,37.90
2023-05-09T10:04:25.253Z,41.72
2023-05-09T10:07:00.037Z,38.38
2023-05-09T10:09:28.301Z,43.35
2023-05-09T10:11:57.318Z,39.63
2023-05-09T10:14:26.571Z,35.95
2023-05-09T10:16:57.767Z,35.97
2023-05-09T10:19:27.622Z,41.75
2023-05-09T10:21:57.740Z,36.97
2023-05-09T10:24:34.579Z,43.95
2023-05-09T10:27:09.836Z,36.45
2023-05-09T10:29:41.816Z,40.55
2023-05-09T10:32:18.004Z,36.78
2023-05-09T10:34:51.862Z,38.70
2023-05-09T10:37:20.573Z,40.15
2023-05-09T10:39:53.415Z,39.42
2023-05-09T10:42:20.804Z,43.87
2023-05-09T10:44:48.508Z,39.25
2023-05-09T10:47:16.393Z,38.88
2023-05-09T10:49:44.714Z,38.15
2023-05-09T10:52:12.646Z,36.03
2023-05-09T10:54:39.856Z,37.95
2023-05-09T10:57:10.112Z,36.47
2023-05-09T10:59:42.393Z,43.53
2023-05-09T11:02:19.408Z,39.28
2023-05-09T11:04:47.156Z,39.25
2023-05-09T11:07:25.977Z,38.40
2023-05-09T11:10:18.255Z,41.67
2023-05-09T11:12:59.435Z,32.03
2023-05-09T11:15:30.166Z,36.97
2023-05-09T11:18:08.087Z,43.85
2023-05-09T11:20:36.118Z,37.90
2023-05-09T11:23:07.181Z,40.17
2023-05-09T11:25:34.422Z,42.47
2023-05-09T11:28:02.177Z,34.78
2023-05-09T11:30:44.627Z,38.78
2023-05-09T11:33:30.425Z,40.17
2023-05-09T11:36:19.014Z,37.83
2023-05-09T11:38:47.586Z,41.97
2023-05-09T11:41:15.859Z,39.47
2023-05-09T11:43:46.923Z,32.55
2023-05-09T11:46:14.137Z,39.53
2023-05-09T11:48:42.484Z,40.97
2023-05-09T11:51:18.438Z,38.40
2023-05-09T11:53:47.330Z,39.30
2023-05-09T11:56:15.083Z,43.40
2023-05-09T11:58:42.743Z,41.10
2023-05-09T12:01:12.408Z,37.70
2023-05-09T12:03:46.802Z,36.65
2023-05-09T12:06:21.308Z,35.65
2023-05-09T12:08:48.952Z,37.38
2023-05-09T12:11:15.995Z,44.90
2023-05-09T12:13:50.313Z,40.53
2023-05-09T12:16:18.811Z,39.40
2023-05-09T12:18:53.264Z,45.92
2023-05-09T12:21:22.141Z,35.05
2023-05-09T12:23:51.688Z,44.40
2023-05-09T12:26:22.397Z,38.20
2023-05-09T12:28:50.466Z,37.67
2023-05-09T12:31:18.444Z,35.40
2023-05-09T12:33:46.018Z,44.50
2023-05-09T12:36:13.929Z,36.85
2023-05-09T12:38:41.181Z,39.80
2023-05-09T12:41:29.888Z,34.90
2023-05-09T12:43:58.219Z,41.58
2023-05-09T12:46:26.072Z,37.33
2023-05-09T12:48:54.549Z,43.65
2023-05-09T12:51:22.741Z,42.33
2023-05-09T12:53:50.112Z,43.15
2023-05-09T12:56:19.219Z,45.80
2023-05-09T12:58:51.952Z,39.60
2023-05-09T13:01:23.971Z,40.40
2023-05-09T13:04:04.752Z,38.88
2023-05-09T13:06:32.634Z,38.80
2023-05-09T13:09:06.127Z,39.25
2023-05-09T13:14:00.273Z,32.45
2023-05-09T13:16:27.967Z,35.92
2023-05-09T13:18:55.072Z,33.45
2023-05-09T13:21:22.134Z,44.85
2023-05-09T13:23:50.362Z,41.13
2023-05-09T13:26:17.499Z,33.92
2023-05-09T13:28:45.007Z,36.30
2023-05-09T13:31:12.074Z,42.92
2023-05-09T13:33:39.377Z,36.70
2023-05-09T13:36:07.991Z,40.42
2023-05-09T13:38:39.034Z,35.03
2023-05-09T13:41:09.988Z,36.72
2023-05-09T13:43:37.795Z,41.53
2023-05-09T13:46:04.948Z,34.00
2023-05-09T13:48:32.218Z,42.90
2023-05-09T13:51:00.592Z,37.75
2023-05-09T13:53:27.782Z,37.33
2023-05-09T13:55:54.828Z,43.33
2023-05-09T13:58:22.064Z,38.10
2023-05-09T14:00:49.153Z,45.05
2023-05-09T14:03:16.265Z,41.45
2023-05-09T14:05:43.610Z,47.42
2023-05-09T14:08:11.418Z,51.50
2023-05-09T14:10:38.435Z,38.65
2023-05-09T14:13:05.670Z,35.95
2023-05-09T14:15:35.504Z,38.88
2023-05-09T14:18:02.649Z,46.17
2023-05-09T14:20:29.757Z,47.80
2023-05-09T14:23:00.030Z,35.38
2023-05-09T14:25:27.569Z,42.53
2023-05-09T14:27:54.618Z,45.60
2023-05-09T14:30:21.907Z,42.35
2023-05-09T14:32:49.151Z,40.58
2023-05-09T14:35:16.517Z,40.70
2023-05-09T14:37:43.745Z,43.08
2023-05-09T14:40:11.085Z,37.97
2023-05-09T14:42:38.296Z,43.65
2023-05-09T14:45:07.547Z,44.50
2023-05-09T14:47:34.734Z,47.42
2023-05-09T14:50:02.302Z,38.97
2023-05-09T14:52:29.343Z,38.20
2023-05-09T14:54:56.585Z,40.53
2023-05-09T14:57:24.257Z,42.55
2023-05-09T14:59:51.419Z,38.92
2023-05-09T15:02:18.499Z,35.47
2023-05-09T15:04:45.637Z,42.40
2023-05-09T15:07:12.828Z,37.90
2023-05-09T15:09:39.914Z,33.92
2023-05-09T15:12:07.168Z,42.58
2023-05-09T15:14:34.235Z,41.05
2023-05-09T15:17:04.424Z,38.83
2023-05-09T15:19:31.894Z,38.13
2023-05-09T15:22:00.600Z,32.58
2023-05-09T15:24:27.651Z,42.05
2023-05-09T15:26:54.784Z,42.63
2023-05-09T15:29:24.567Z,38.95
2023-05-09T15:31:51.605Z,35.35
2023-05-09T15:34:18.980Z,37.10
2023-05-09T15:36:46.242Z,35.70
2023-05-09T15:39:13.408Z,34.47
2023-05-09T15:41:40.481Z,44.38
2023-05-09T15:44:07.665Z,36.30
2023-05-09T15:46:34.918Z,36.90
2023-05-09T15:49:02.113Z,40.85
2023-05-09T15:51:30.357Z,37.17
2023-05-09T15:53:57.420Z,34.22
2023-05-09T15:56:24.514Z,33.80
2023-05-09T15:58:51.626Z,36.47
2023-05-09T16:01:19.601Z,41.17
2023-05-09T16:03:46.860Z,38.70
2023-05-09T16:06:14.482Z,35.92
2023-05-09T16:08:41.490Z,40.30
2023-05-09T16:11:09.037Z,36.10
2023-05-09T16:13:36.342Z,36.75
2023-05-09T16:16:03.955Z,32.72
2023-05-09T16:18:31.734Z,40.25
2023-05-09T16:20:59.900Z,31.92
2023-05-09T16:23:27.004Z,42.60
2023-05-09T16:25:54.173Z,35.67
2023-05-09T16:28:23.819Z,43.85
2023-05-09T16:30:54.251Z,40.72
2023-05-09T16:33:21.301Z,33.50
2023-05-09T16:35:48.459Z,45.85
2023-05-09T16:38:15.641Z,39.38
2023-05-09T16:40:42.990Z,37.25
2023-05-09T16:43:10.178Z,41.40
2023-05-09T16:45:37.236Z,36.42
2023-05-09T16:48:05.016Z,36.58
2023-05-09T16:50:32.278Z,35.17
2023-05-09T16:52:59.382Z,35.38
2023-05-09T16:55:26.515Z,39.92
2023-05-09T16:57:53.537Z,38.75
2023-05-09T17:00:21.221Z,39.22
2023-05-09T17:02:48.366Z,40.78
2023-05-09T17:05:15.520Z,40.97
2023-05-09T17:07:42.620Z,30.05
2023-05-09T17:10:10.125Z,42.95
2023-05-09T17:12:39.074Z,38.60
2023-05-09T17:15:07.736Z,42.38
2023-05-09T17:17:35.492Z,35.92
2023-05-09T17:20:02.753Z,38.65
2023-05-09T17:22:29.866Z,42.78
2023-05-09T17:24:57.780Z,42.33
2023-05-09T17:27:25.026Z,38.72
2023-05-09T17:29:52.147Z,35.13
2023-05-09T17:32:19.206Z,36.00
2023-05-09T17:34:46.283Z,36.15
2023-05-09T17:37:13.456Z,41.92
2023-05-09T17:39:42.454Z,34.00
2023-05-09T17:42:09.946Z,39.50
2023-05-09T17:44:37.878Z,40.15
2023-05-09T17:47:04.965Z,41.85
2023-05-09T17:49:32.154Z,44.45
2023-05-09T17:52:00.192Z,43.88
2023-05-09T17:54:27.355Z,36.45
2023-05-09T17:56:59.301Z,37.75
2023-05-09T17:59:26.426Z,36.53
2023-05-09T18:01:54.581Z,36.97
2023-05-09T18:04:22.188Z,40.97
2023-05-09T18:06:50.126Z,35.50
2023-05-09T18:09:17.736Z,33.97
2023-05-09T18:11:44.882Z,39.53
2023-05-09T18:14:13.181Z,44.05
2023-05-09T18:16:40.254Z,40.25
2023-05-09T18:19:07.476Z,44.95
2023-05-09T18:21:34.670Z,41.17
2023-05-09T18:24:01.699Z,43.03
2023-05-09T18:26:29.261Z,44.00
2023-05-09T18:28:56.431Z,44.30
2023-05-09T18:31:23.559Z,43.67
2023-05-09T18:33:50.916Z,46.72
2023-05-09T18:36:18.895Z,48.10
2023-05-09T18:38:47.006Z,40.53
2023-05-09T18:41:16.144Z,40.30
2023-05-09T18:43:46.398Z,43.40
2023-05-09T18:46:21.807Z,41.53
2023-05-09T18:48:51.519Z,47.80
2023-05-09T18:51:19.680Z,39.13
2023-05-09T18:53:47.989Z,43.75
2023-05-09T18:56:15.160Z,35.25
2023-05-09T18:58:42.180Z,44.88
2023-05-09T19:01:11.909Z,43.88
2023-05-09T19:03:46.135Z,39.50
2023-05-09T19:06:14.564Z,42.22
2023-05-09T19:08:43.472Z,45.90
2023-05-09T19:11:12.047Z,43.67
2023-05-09T19:13:41.514Z,36.60
2023-05-09T19:16:09.379Z,40.40
2023-05-09T19:18:36.629Z,44.58
2023-05-09T19:23:49.621Z,43.10
2023-05-09T19:26:18.929Z,36.17
2023-05-09T19:28:48.971Z,45.90
2023-05-09T19:31:16.490Z,46.28
2023-05-09T19:33:45.860Z,38.88
2023-05-09T19:36:13.310Z,40.38
2023-05-09T19:38:41.408Z,47.38
2023-05-09T19:41:08.734Z,40.90
2023-05-09T19:43:36.482Z,45.35
2023-05-09T19:46:04.036Z,54.38
2023-05-09T19:48:32.020Z,42.25
2023-05-09T19:50:59.682Z,45.10
2023-05-09T19:53:26.863Z,35.55
2023-05-09T19:55:54.593Z,51.47
2023-05-09T19:58:22.364Z,36.65
2023-05-09T20:00:50.203Z,49.30
2023-05-09T20:03:17.529Z,47.00
2023-05-09T20:08:29.878Z,38.90
2023-05-09T20:10:57.535Z,47.20
2023-05-09T20:13:24.595Z,43.15
2023-05-09T20:15:51.635Z,43.85
2023-05-09T20:18:18.849Z,57.13
2023-05-09T20:20:45.945Z,53.90
2023-05-09T20:23:13.227Z,44.20
2023-05-09T20:25:40.653Z,57.55
2023-05-09T20:28:07.626Z,38.63
2023-05-09T20:30:34.539Z,45.17
2023-05-09T20:33:01.887Z,48.28
2023-05-09T20:35:29.058Z,42.83
2023-05-09T20:37:56.184Z,50.67
2023-05-09T20:40:23.656Z,45.83
2023-05-09T20:42:51.326Z,46.33
2023-05-09T20:45:18.316Z,48.88
2023-05-09T20:47:45.434Z,45.38
2023-05-09T20:50:12.478Z,44.72
2023-05-09T20:52:39.425Z,42.03
2023-05-09T20:55:06.895Z,45.03
2023-05-09T20:57:34.210Z,50.88
2023-05-09T21:00:01.171Z,45.95
2023-05-09T21:02:28.502Z,37.42
2023-05-09T21:04:55.584Z,48.60
2023-05-09T21:07:22.653Z,33.75
2023-05-09T21:09:51.014Z,50.17
2023-05-09T21:12:18.159Z,52.60
2023-05-09T21:14:45.175Z,42.17
2023-05-09T21:17:12.546Z,50.65
2023-05-09T21:19:39.538Z,42.45
2023-05-09T21:22:06.507Z,48.75
2023-05-09T21:24:33.642Z,45.13
2023-05-09T21:27:00.599Z,51.88
2023-05-09T21:29:27.543Z,53.97
2023-05-09T21:31:54.577Z,43.83
2023-05-09T21:34:21.792Z,47.55
2023-05-09T21:36:48.786Z,48.92
2023-05-09T21:39:15.804Z,49.45
2023-05-09T21:41:43.177Z,58.20
2023-05-09T21:44:11.473Z,50.42
2023-05-09T21:46:38.716Z,41.83
2023-05-09T21:49:06.401Z,41.63
2023-05-09T21:51:35.130Z,49.50
2023-05-09T21:54:02.259Z,57.88
2023-05-09T21:56:29.893Z,57.60
2023-05-09T21:58:56.910Z,48.20
2023-05-09T22:01:23.919Z,55.25
2023-05-09T22:03:51.891Z,51.55
2023-05-09T22:06:19.013Z,44.25
2023-05-09T22:08:46.088Z,39.88
2023-05-09T22:11:14.741Z,43.85
2023-05-09T22:13:42.696Z,46.45
2023-05-09T22:16:09.990Z,40.92
2023-05-09T22:18:37.412Z,46.28
2023-05-09T22:21:09.930Z,54.45
2023-05-09T22:23:36.898Z,50.45
2023-05-09T22:26:03.922Z,49.83
2023-05-09T22:28:31.204Z,43.25
2023-05-09T22:30:58.191Z,57.00
2023-05-09T22:33:25.137Z,45.15
2023-05-09T22:35:52.194Z,50.85
2023-05-09T22:38:19.164Z,41.58
2023-05-09T22:40:46.139Z,45.92
2023-05-09T22:43:13.399Z,48.00
2023-05-09T22:45:40.592Z,45.65
2023-05-09T22:48:08.009Z,46.45
2023-05-09T22:50:35.525Z,50.45
2023-05-09T22:53:02.741Z,55.97
2023-05-09T22:55:29.859Z,49.33
2023-05-09T22:57:57.216Z,52.05
2023-05-09T23:00:24.323Z,59.15
2023-05-09T23:02:51.481Z,48.00
2023-05-09T23:05:19.039Z,50.20
2023-05-09T23:07:46.111Z,45.45
2023-05-09T23:10:13.215Z,47.55
2023-05-09T23:12:40.642Z,42.30
2023-05-09T23:15:08.363Z,47.17
2023-05-09T23:17:35.797Z,48.35
2023-05-09T23:20:04.264Z,45.65
2023-05-09T23:22:31.698Z,45.58
2023-05-09T23:25:01.072Z,55.17
2023-05-09T23:27:28.654Z,52.45
2023-05-09T23:29:55.819Z,43.13
2023-05-09T23:32:23.005Z,64.05
2023-05-09T23:34:50.094Z,57.85
2023-05-09T23:37:17.530Z,52.17
2023-05-09T23:39:55.603Z,62.90
2023-05-09T23:42:22.622Z,51.67
2023-05-09T23:44:49.697Z,50.28
2023-05-09T23:47:16.752Z,45.65
2023-05-09T23:49:43.882Z,52.20
2023-05-09T23:52:10.978Z,53.92
2023-05-09T23:54:38.887Z,59.65
2023-05-09T23:57:06.078Z,43.72
2023-05-09T23:59:33.238Z,56.38
